createdAt,value
2022-10-25T00:03:53.340Z,100.00
2022-10-25T00:08:54.959Z,100.00
2022-10-25T00:13:59.569Z,100.00
2022-10-25T00:19:01.171Z,100.00
2022-10-25T00:24:02.933Z,100.00
2022-10-25T00:29:04.573Z,100.00
2022-10-25T00:34:06.149Z,100.00
2022-10-25T00:39:07.815Z,100.00
2022-10-25T00:44:34.283Z,99.60
2022-10-25T00:49:35.990Z,98.54
2022-10-25T00:54:42.800Z,98.56
2022-10-25T00:59:45.796Z,96.63
2022-10-25T01:04:47.719Z,95.69
2022-10-25T01:09:50.697Z,96.77
2022-10-25T01:14:53.082Z,95.19
2022-10-25T01:20:00.732Z,93.32
2022-10-25T01:25:17.448Z,90.71
2022-10-25T01:30:21.474Z,90.90
2022-10-25T01:35:30.991Z,89.09
2022-10-25T01:40:51.105Z,91.01
2022-10-25T01:46:03.710Z,93.16
2022-10-25T01:51:10.664Z,92.96
2022-10-25T01:56:19.001Z,94.99
2022-10-25T02:01:36.331Z,95.18
2022-10-25T02:06:59.368Z,96.54
2022-10-25T02:12:04.643Z,94.89
2022-10-25T02:17:16.697Z,93.87
2022-10-25T02:22:21.668Z,93.28
2022-10-25T02:27:25.057Z,92.43
2022-10-25T02:32:27.715Z,92.46
2022-10-25T02:37:29.308Z,93.74
2022-10-25T02:42:30.970Z,93.05
2022-10-25T02:47:32.565Z,94.69
2022-10-25T02:52:34.235Z,94.46
2022-10-25T02:57:37.508Z,94.15
2022-10-25T03:02:39.045Z,93.71
2022-10-25T03:07:40.618Z,95.47
2022-10-25T03:12:42.257Z,96.42
2022-10-25T03:17:43.986Z,98.03
2022-10-25T03:22:45.753Z,99.14
2022-10-25T03:27:47.741Z,100.00
2022-10-25T03:32:49.534Z,100.00
2022-10-25T03:37:52.365Z,100.00
2022-10-25T03:42:53.934Z,100.00
2022-10-25T03:47:55.494Z,100.00
2022-10-25T03:52:57.060Z,100.00
2022-10-25T03:57:59.035Z,100.00
2022-10-25T04:03:02.553Z,99.24
2022-10-25T04:08:04.694Z,97.47
2022-10-25T04:13:06.338Z,95.85
2022-10-25T04:18:07.885Z,94.87
2022-10-25T04:23:09.554Z,93.19
2022-10-25T04:28:11.097Z,93.25
2022-10-25T04:33:12.670Z,93.04
2022-10-25T04:38:14.392Z,91.95
2022-10-25T04:43:15.982Z,91.36
2022-10-25T04:48:18.365Z,91.05
2022-10-25T04:53:20.072Z,90.66
2022-10-25T04:58:21.701Z,91.10
2022-10-25T05:03:23.285Z,92.09
2022-10-25T05:08:24.884Z,92.86
2022-10-25T05:13:26.522Z,93.68
2022-10-25T05:18:28.170Z,93.18
2022-10-25T05:23:31.990Z,91.97
2022-10-25T05:28:35.720Z,90.85
2022-10-25T05:33:40.419Z,90.80
2022-10-25T05:38:42.836Z,91.58
2022-10-25T05:43:45.297Z,88.22
2022-10-25T05:48:49.102Z,87.98
2022-10-25T05:53:52.726Z,88.37
2022-10-25T05:58:57.080Z,86.79
2022-10-25T06:03:58.610Z,86.69
2022-10-25T06:09:01.323Z,86.75
2022-10-25T06:14:03.748Z,84.91
2022-10-25T06:19:05.374Z,84.11
2022-10-25T06:24:07.042Z,82.69
2022-10-25T06:29:09.553Z,81.37
2022-10-25T06:34:11.245Z,80.44
2022-10-25T06:39:12.818Z,81.75
2022-10-25T06:44:14.532Z,80.35
2022-10-25T06:49:16.131Z,79.99
2022-10-25T06:54:17.836Z,79.68
2022-10-25T06:59:20.529Z,80.20
2022-10-25T07:04:22.266Z,79.13
2022-10-25T07:09:25.336Z,78.80
2022-10-25T07:14:26.974Z,77.44
2022-10-25T07:19:28.495Z,77.65
2022-10-25T07:24:30.096Z,77.20
2022-10-25T07:29:31.679Z,77.99
2022-10-25T07:34:33.403Z,77.75
2022-10-25T07:39:35.047Z,77.35
2022-10-25T07:44:36.713Z,76.25
2022-10-25T07:49:39.963Z,76.80
2022-10-25T07:59:43.178Z,73.36
2022-10-25T08:04:44.875Z,74.59
2022-10-25T08:09:46.481Z,73.32
2022-10-25T08:14:49.792Z,73.30
2022-10-25T08:19:51.608Z,73.48
2022-10-25T08:24:53.590Z,72.71
2022-10-25T08:29:55.262Z,71.34
2022-10-25T08:34:56.987Z,71.30
2022-10-25T08:39:58.564Z,71.85
2022-10-25T08:45:11.076Z,71.38
2022-10-25T08:50:20.691Z,71.83
2022-10-25T08:55:44.551Z,70.72
2022-10-25T09:00:57.452Z,69.66
2022-10-25T09:06:20.837Z,70.37
2022-10-25T09:11:50.361Z,70.19
2022-10-25T09:16:55.749Z,67.80
2022-10-25T09:22:01.326Z,67.32
2022-10-25T09:27:09.022Z,67.17
2022-10-25T09:32:24.713Z,66.93
2022-10-25T09:37:42.098Z,67.25
2022-10-25T09:42:53.016Z,68.73
2022-10-25T09:48:06.169Z,68.85
2022-10-25T09:53:14.247Z,70.03
2022-10-25T09:58:23.970Z,69.22
2022-10-25T10:03:31.990Z,69.66
2022-10-25T10:08:35.414Z,70.01
2022-10-25T10:13:48.693Z,71.00
2022-10-25T10:18:50.285Z,69.53
2022-10-25T10:24:02.308Z,69.86
2022-10-25T10:29:15.390Z,70.02
2022-10-25T10:34:30.894Z,69.91
2022-10-25T10:39:32.714Z,70.19
2022-10-25T10:44:34.845Z,68.91
2022-10-25T10:49:40.871Z,70.00
2022-10-25T10:54:48.001Z,69.45
2022-10-25T10:59:56.418Z,68.92
2022-10-25T11:04:58.253Z,68.84
2022-10-25T11:10:15.318Z,68.69
2022-10-25T11:15:18.270Z,66.60
2022-10-25T11:20:56.914Z,63.11
2022-10-25T11:26:07.332Z,59.83
2022-10-25T11:31:12.283Z,59.75
2022-10-25T11:36:23.157Z,59.70
2022-10-25T11:41:46.107Z,57.89
2022-10-25T11:47:15.603Z,58.40
2022-10-25T11:52:35.804Z,58.19
2022-10-25T11:57:37.577Z,60.09
2022-10-25T12:03:03.317Z,60.47
2022-10-25T12:08:14.142Z,61.31
2022-10-25T12:13:19.650Z,59.55
2022-10-25T12:18:49.515Z,61.19
2022-10-25T12:23:53.508Z,62.28
2022-10-25T12:28:59.961Z,63.29
2022-10-25T12:34:08.950Z,62.32
2022-10-25T12:39:36.622Z,60.43
2022-10-25T12:44:58.405Z,61.96
2022-10-25T12:50:15.301Z,63.29
2022-10-25T12:55:26.558Z,61.41
2022-10-25T13:00:37.295Z,62.60
2022-10-25T13:06:02.071Z,65.22
2022-10-25T13:11:06.801Z,71.32
2022-10-25T13:16:10.728Z,68.93
2022-10-25T13:21:15.730Z,68.28
2022-10-25T13:26:25.807Z,64.60
2022-10-25T13:31:36.674Z,62.64
2022-10-25T13:36:52.953Z,61.37
2022-10-25T13:42:02.574Z,62.75
2022-10-25T13:47:04.337Z,61.83
2022-10-25T13:52:24.893Z,61.32
2022-10-25T13:57:56.611Z,62.61
2022-10-25T14:03:10.327Z,63.00
2022-10-25T14:08:45.142Z,61.62
2022-10-25T14:14:05.276Z,62.28
2022-10-25T14:19:16.745Z,64.00
2022-10-25T14:24:19.995Z,63.77
2022-10-25T14:29:25.056Z,63.71
2022-10-25T14:34:30.150Z,65.38
2022-10-25T14:39:32.191Z,66.43
2022-10-25T14:44:50.639Z,68.21
2022-10-25T14:49:52.301Z,69.62
2022-10-25T14:55:06.127Z,73.37
2022-10-25T15:00:18.315Z,76.35
2022-10-25T15:05:22.780Z,77.16
2022-10-25T15:10:30.697Z,78.84
2022-10-25T15:15:40.660Z,80.24
2022-10-25T15:20:42.590Z,80.94
2022-10-25T15:25:44.483Z,82.20
2022-10-25T15:30:48.894Z,84.46
2022-10-25T15:35:55.697Z,86.84
2022-10-25T15:40:57.741Z,87.85
2022-10-25T15:46:00.407Z,88.23
2022-10-25T15:51:02.231Z,89.39
2022-10-25T15:56:04.345Z,89.99
2022-10-25T16:01:06.450Z,89.97
2022-10-25T16:06:11.562Z,90.33
2022-10-25T16:11:16.839Z,91.05
2022-10-25T16:16:41.061Z,91.71
2022-10-25T16:21:43.666Z,91.74
2022-10-25T16:26:48.684Z,92.25
2022-10-25T16:31:50.738Z,92.28
2022-10-25T16:36:53.084Z,91.05
2022-10-25T16:41:56.739Z,89.28
2022-10-25T16:46:59.991Z,90.27
2022-10-25T16:52:01.521Z,90.79
2022-10-25T16:57:03.150Z,90.05
2022-10-25T17:02:05.300Z,89.34
2022-10-25T17:07:06.953Z,87.39
2022-10-25T17:12:10.096Z,87.78
2022-10-25T17:17:11.835Z,89.17
2022-10-25T17:22:13.456Z,90.03
2022-10-25T17:27:14.988Z,91.87
2022-10-25T17:32:16.546Z,92.94
2022-10-25T17:37:18.064Z,93.14
2022-10-25T17:42:20.245Z,93.97
2022-10-25T17:47:21.982Z,95.17
2022-10-25T17:52:23.540Z,96.08
2022-10-25T17:57:25.130Z,96.26
2022-10-25T18:02:27.919Z,96.14
2022-10-25T18:07:32.706Z,96.90
2022-10-25T18:12:36.568Z,96.75
2022-10-25T18:17:38.099Z,96.82
2022-10-25T18:22:39.616Z,98.47
2022-10-25T18:27:41.472Z,99.71
2022-10-25T18:32:43.041Z,100.00
2022-10-25T18:37:44.584Z,100.00
2022-10-25T18:42:46.230Z,100.00
2022-10-25T18:47:53.368Z,100.00
2022-10-25T18:52:54.892Z,100.00
2022-10-25T18:57:58.762Z,100.00
2022-10-25T19:03:00.310Z,100.00
2022-10-25T19:08:01.806Z,100.00
2022-10-25T19:13:04.233Z,100.00
2022-10-25T19:18:05.928Z,100.00
2022-10-25T19:23:08.288Z,100.00
2022-10-25T19:28:10.128Z,100.00
2022-10-25T19:33:11.755Z,100.00
2022-10-25T19:38:14.476Z,100.00
2022-10-25T19:43:15.980Z,100.00
2022-10-25T19:48:17.521Z,100.00
2022-10-25T19:53:19.379Z,100.00
2022-10-25T19:58:20.891Z,100.00
2022-10-25T20:03:22.461Z,100.00
2022-10-25T20:08:23.988Z,100.00
2022-10-25T20:13:25.795Z,100.00
2022-10-25T20:18:31.964Z,100.00
2022-10-25T20:23:34.541Z,100.00
2022-10-25T20:28:36.100Z,100.00
2022-10-25T20:33:38.801Z,100.00
2022-10-25T20:38:41.138Z,100.00
2022-10-25T20:43:46.841Z,100.00
2022-10-25T20:48:48.391Z,100.00
2022-10-25T20:53:50.026Z,100.00
2022-10-25T20:58:51.979Z,100.00
2022-10-25T21:03:54.111Z,100.00
2022-10-25T21:08:55.773Z,100.00
2022-10-25T21:13:57.321Z,100.00
2022-10-25T21:19:03.217Z,100.00
2022-10-25T21:24:06.136Z,100.00
2022-10-25T21:29:07.830Z,100.00
2022-10-25T21:34:09.412Z,100.00
2022-10-25T21:39:11.027Z,100.00
2022-10-25T21:44:12.602Z,100.00
2022-10-25T21:49:14.228Z,100.00
2022-10-25T21:54:16.073Z,100.00
2022-10-25T21:59:17.721Z,100.00
2022-10-25T22:04:19.304Z,100.00
2022-10-25T22:09:20.879Z,100.00
2022-10-25T22:14:22.452Z,100.00
2022-10-25T22:24:30.681Z,100.00
2022-10-25T22:29:32.317Z,100.00
2022-10-25T22:34:33.931Z,100.00
2022-10-25T22:39:35.596Z,100.00
2022-10-25T22:44:38.571Z,100.00
2022-10-25T22:49:40.388Z,100.00
2022-10-25T22:54:42.105Z,100.00
2022-10-25T22:59:43.713Z,100.00
2022-10-25T23:04:45.342Z,100.00
2022-10-25T23:09:47.050Z,100.00
2022-10-25T23:14:48.562Z,100.00
2022-10-25T23:19:50.109Z,100.00
2022-10-25T23:24:51.740Z,100.00
2022-10-25T23:29:53.341Z,100.00
2022-10-25T23:34:57.019Z,100.00
2022-10-25T23:39:58.824Z,100.00
2022-10-25T23:45:03.205Z,100.00
2022-10-25T23:50:05.400Z,100.00
2022-10-25T23:55:07.654Z,100.00
